createdAt,value
2022-10-12T00:01:38.231Z,14.60
2022-10-12T00:04:11.301Z,14.60
2022-10-12T00:06:38.196Z,14.60
2022-10-12T00:09:11.321Z,14.60
2022-10-12T00:11:45.295Z,14.50
2022-10-12T00:14:27.291Z,14.50
2022-10-12T00:17:00.303Z,14.50
2022-10-12T00:19:27.159Z,14.50
2022-10-12T00:22:00.289Z,14.60
2022-10-12T00:24:27.174Z,14.70
2022-10-12T00:26:54.103Z,14.80
2022-10-12T00:29:27.362Z,14.90
2022-10-12T00:32:00.336Z,14.80
2022-10-12T00:34:33.316Z,14.80
2022-10-12T00:37:06.274Z,14.60
2022-10-12T00:39:33.239Z,14.50
2022-10-12T00:42:06.307Z,14.60
2022-10-12T00:44:46.330Z,14.70
2022-10-12T00:47:29.326Z,14.60
2022-10-12T00:50:09.089Z,14.50
2022-10-12T00:52:50.316Z,14.40
2022-10-12T00:55:19.611Z,14.40
2022-10-12T00:57:54.321Z,14.30
2022-10-12T01:00:21.617Z,14.30
2022-10-12T01:02:49.489Z,14.20
2022-10-12T01:05:23.371Z,14.20
2022-10-12T01:07:50.342Z,14.20
2022-10-12T01:10:24.349Z,14.20
2022-10-12T01:12:51.254Z,14.20
2022-10-12T01:15:24.329Z,14.20
2022-10-12T01:17:58.970Z,14.10
2022-10-12T01:21:04.322Z,14.10
2022-10-12T01:23:56.490Z,14.10
2022-10-12T01:26:55.358Z,14.10
2022-10-12T01:30:00.403Z,14.10
2022-10-12T01:32:52.199Z,14.10
2022-10-12T01:35:51.361Z,14.30
2022-10-12T01:38:51.365Z,14.30
2022-10-12T01:41:25.082Z,14.30
2022-10-12T01:43:58.411Z,14.10
2022-10-12T01:46:25.276Z,14.00
2022-10-12T01:49:07.352Z,13.90
2022-10-12T01:52:01.719Z,13.90
2022-10-12T01:54:55.337Z,13.90
2022-10-12T01:58:01.473Z,13.90
2022-10-12T02:00:35.392Z,13.80
2022-10-12T02:03:33.455Z,13.80
2022-10-12T02:06:19.404Z,13.70
2022-10-12T02:09:17.570Z,13.60
2022-10-12T02:11:51.394Z,13.70
2022-10-12T02:14:33.059Z,13.70
2022-10-12T02:17:07.386Z,13.70
2022-10-12T02:19:45.442Z,13.70
2022-10-12T02:22:12.465Z,13.70
2022-10-12T02:24:47.336Z,13.70
2022-10-12T02:27:21.386Z,13.70
2022-10-12T02:29:48.511Z,13.70
2022-10-12T02:32:26.399Z,13.70
2022-10-12T02:35:00.604Z,13.70
2022-10-12T02:38:05.361Z,13.70
2022-10-12T02:40:38.867Z,13.70
2022-10-12T02:43:39.379Z,13.70
2022-10-12T02:46:09.172Z,13.80
2022-10-12T02:48:36.545Z,13.80
2022-10-12T02:51:10.431Z,13.80
2022-10-12T02:53:37.345Z,13.90
2022-10-12T02:56:14.409Z,13.80
2022-10-12T02:58:45.584Z,13.90
2022-10-12T03:01:19.439Z,13.90
2022-10-12T03:03:46.437Z,14.00
2022-10-12T03:06:19.412Z,14.20
2022-10-12T03:08:46.282Z,14.30
2022-10-12T03:11:20.400Z,14.10
2022-10-12T03:13:53.750Z,14.10
2022-10-12T03:16:27.407Z,14.10
2022-10-12T03:18:54.350Z,14.10
2022-10-12T03:21:27.424Z,14.10
2022-10-12T03:23:54.428Z,14.10
2022-10-12T03:26:27.379Z,14.10
2022-10-12T03:29:00.457Z,14.00
2022-10-12T03:31:27.392Z,14.00
2022-10-12T03:33:54.301Z,13.90
2022-10-12T03:36:27.386Z,13.80
2022-10-12T03:38:54.458Z,13.80
2022-10-12T03:41:27.398Z,13.90
2022-10-12T03:43:54.536Z,13.80
2022-10-12T03:46:28.403Z,13.70
2022-10-12T03:48:55.295Z,13.60
2022-10-12T03:51:28.432Z,13.50
2022-10-12T03:53:55.329Z,13.40
2022-10-12T03:56:28.463Z,13.40
2022-10-12T03:59:02.456Z,13.40
2022-10-12T04:01:29.484Z,13.30
2022-10-12T04:04:02.402Z,13.30
2022-10-12T04:06:35.466Z,13.30
2022-10-12T04:09:02.437Z,13.20
2022-10-12T04:11:35.507Z,13.20
2022-10-12T04:14:02.561Z,13.20
2022-10-12T04:16:36.462Z,13.10
2022-10-12T04:19:03.686Z,13.10
2022-10-12T04:21:31.480Z,13.30
2022-10-12T04:24:05.420Z,13.30
2022-10-12T04:26:38.462Z,13.40
2022-10-12T04:29:05.448Z,13.30
2022-10-12T04:31:38.464Z,13.30
2022-10-12T04:34:11.472Z,13.30
2022-10-12T04:36:38.419Z,13.40
2022-10-12T04:39:11.479Z,13.50
2022-10-12T04:41:38.372Z,13.40
2022-10-12T04:44:06.201Z,13.30
2022-10-12T04:46:40.459Z,13.30
2022-10-12T04:49:07.446Z,13.10
2022-10-12T04:51:40.450Z,13.10
2022-10-12T04:54:07.535Z,13.00
2022-10-12T04:56:44.161Z,12.90
2022-10-12T04:59:13.899Z,12.90
2022-10-12T05:01:47.567Z,13.10
2022-10-12T05:04:14.496Z,13.10
2022-10-12T05:06:41.569Z,13.10
2022-10-12T05:09:17.103Z,13.20
2022-10-12T05:11:44.589Z,13.30
2022-10-12T05:14:18.459Z,13.20
2022-10-12T05:16:45.384Z,13.40
2022-10-12T05:19:18.492Z,13.40
2022-10-12T05:21:45.406Z,13.40
2022-10-12T05:24:18.540Z,13.40
2022-10-12T05:26:46.056Z,13.30
2022-10-12T05:29:19.507Z,13.20
2022-10-12T05:31:52.569Z,13.00
2022-10-12T05:34:19.750Z,12.80
2022-10-12T05:36:46.859Z,12.70
2022-10-12T05:39:20.539Z,12.70
2022-10-12T05:41:53.227Z,12.80
2022-10-12T05:44:36.537Z,12.80
2022-10-12T05:47:03.572Z,12.80
2022-10-12T05:49:37.597Z,12.90
2022-10-12T05:52:14.502Z,13.00
2022-10-12T05:54:41.390Z,13.00
2022-10-12T05:57:14.464Z,13.00
2022-10-12T05:59:44.744Z,13.10
2022-10-12T06:02:22.494Z,13.20
2022-10-12T06:04:55.474Z,13.20
2022-10-12T06:07:28.517Z,13.30
2022-10-12T06:10:01.577Z,13.30
2022-10-12T06:12:35.726Z,13.30
2022-10-12T06:15:16.532Z,13.40
2022-10-12T06:17:49.544Z,13.50
2022-10-12T06:20:23.502Z,13.60
2022-10-12T06:22:50.404Z,13.90
2022-10-12T06:25:17.408Z,14.30
2022-10-12T06:27:52.554Z,14.50
2022-10-12T06:30:25.492Z,14.70
2022-10-12T06:32:58.482Z,14.80
2022-10-12T06:35:31.552Z,15.00
2022-10-12T06:37:58.426Z,15.20
2022-10-12T06:40:31.494Z,15.30
2022-10-12T06:42:58.738Z,15.30
2022-10-12T06:45:32.549Z,15.40
2022-10-12T06:48:05.560Z,15.50
2022-10-12T06:50:38.499Z,15.60
2022-10-12T06:53:05.433Z,15.70
2022-10-12T06:55:38.551Z,15.80
2022-10-12T06:58:05.557Z,16.10
2022-10-12T07:00:38.511Z,16.30
2022-10-12T07:03:05.416Z,16.60
2022-10-12T07:05:38.557Z,16.90
2022-10-12T07:08:05.567Z,17.10
2022-10-12T07:10:32.477Z,17.30
2022-10-12T07:13:05.546Z,17.40
2022-10-12T07:15:38.621Z,17.70
2022-10-12T07:18:05.604Z,17.80
2022-10-12T07:20:32.474Z,18.00
2022-10-12T07:23:05.547Z,18.10
2022-10-12T07:25:38.549Z,18.20
2022-10-12T07:28:05.524Z,18.20
2022-10-12T07:30:39.837Z,18.30
2022-10-12T07:33:16.339Z,18.70
2022-10-12T07:36:10.708Z,19.10
2022-10-12T07:38:40.108Z,19.20
2022-10-12T07:41:10.340Z,19.20
2022-10-12T07:43:37.294Z,19.70
2022-10-12T07:46:11.540Z,20.50
2022-10-12T07:48:38.510Z,21.40
2022-10-12T07:51:16.553Z,22.30
2022-10-12T07:53:43.485Z,23.10
2022-10-12T07:56:17.549Z,23.00
2022-10-12T07:58:55.118Z,23.00
2022-10-12T08:01:30.615Z,23.20
2022-10-12T08:04:01.516Z,23.50
2022-10-12T08:06:38.552Z,23.70
2022-10-12T08:09:05.769Z,23.70
2022-10-12T08:11:39.539Z,23.80
2022-10-12T08:14:10.718Z,23.60
2022-10-12T08:16:44.600Z,23.90
2022-10-12T08:19:11.786Z,24.10
2022-10-12T08:21:45.590Z,23.90
2022-10-12T08:24:19.621Z,23.80
2022-10-12T08:26:52.611Z,23.90
2022-10-12T08:29:19.486Z,23.80
2022-10-12T08:31:52.554Z,23.70
2022-10-12T08:34:25.583Z,23.70
2022-10-12T08:36:52.407Z,23.70
2022-10-12T08:39:19.269Z,23.40
2022-10-12T08:42:19.559Z,23.50
2022-10-12T08:45:08.609Z,23.60
2022-10-12T08:47:47.299Z,23.50
2022-10-12T08:50:48.694Z,23.50
2022-10-12T08:53:20.368Z,23.30
2022-10-12T08:55:53.574Z,23.00
2022-10-12T08:58:34.828Z,23.20
2022-10-12T09:01:39.676Z,23.30
2022-10-12T09:04:47.005Z,23.40
2022-10-12T09:07:41.584Z,23.40
2022-10-12T09:10:28.439Z,23.50
2022-10-12T09:13:10.843Z,23.90
2022-10-12T09:15:43.332Z,24.10
2022-10-12T09:18:25.619Z,23.90
2022-10-12T09:20:52.857Z,24.00
2022-10-12T09:23:37.621Z,24.10
2022-10-12T09:26:23.229Z,24.20
2022-10-12T09:29:02.700Z,24.50
2022-10-12T09:32:25.959Z,24.80
2022-10-12T09:34:59.626Z,24.70
2022-10-12T09:37:29.367Z,24.60
2022-10-12T09:39:56.370Z,24.50
2022-10-12T09:42:29.662Z,24.50
2022-10-12T09:45:09.620Z,24.50
2022-10-12T09:47:36.492Z,24.20
2022-10-12T09:50:13.668Z,24.20
2022-10-12T09:52:44.093Z,24.30
2022-10-12T09:55:22.657Z,24.10
2022-10-12T09:58:00.072Z,23.90
2022-10-12T10:00:38.642Z,23.90
2022-10-12T10:03:05.524Z,24.00
2022-10-12T10:05:43.609Z,24.20
2022-10-12T10:08:21.170Z,24.20
2022-10-12T10:11:01.872Z,24.20
2022-10-12T10:13:30.599Z,24.20
2022-10-12T10:16:15.689Z,24.30
2022-10-12T10:18:49.487Z,24.30
2022-10-12T10:21:31.651Z,24.40
2022-10-12T10:24:00.443Z,24.70
2022-10-12T10:26:35.639Z,24.50
2022-10-12T10:29:36.799Z,24.50
2022-10-12T10:32:27.655Z,24.60
2022-10-12T10:35:25.844Z,24.50
2022-10-12T10:38:01.706Z,24.50
2022-10-12T10:40:31.052Z,24.50
2022-10-12T10:43:08.668Z,24.50
2022-10-12T10:45:56.644Z,24.60
2022-10-12T10:48:28.775Z,24.70
2022-10-12T10:51:06.729Z,24.70
2022-10-12T10:53:47.060Z,24.30
2022-10-12T10:56:32.689Z,24.40
2022-10-12T10:59:09.747Z,24.30
2022-10-12T11:02:03.002Z,24.30
2022-10-12T11:04:37.403Z,24.20
2022-10-12T11:07:26.684Z,24.40
2022-10-12T11:09:56.644Z,24.70
2022-10-12T11:12:46.677Z,24.50
2022-10-12T11:15:24.136Z,24.40
2022-10-12T11:18:01.719Z,24.40
2022-10-12T11:20:41.744Z,24.40
2022-10-12T11:23:35.677Z,24.50
2022-10-12T11:26:37.956Z,24.60
2022-10-12T11:29:11.717Z,24.50
2022-10-12T11:31:47.815Z,24.80
2022-10-12T11:34:19.791Z,25.00
2022-10-12T11:37:18.786Z,24.90
2022-10-12T11:39:44.667Z,25.10
2022-10-12T11:42:27.694Z,25.10
2022-10-12T11:44:54.610Z,25.10
2022-10-12T11:47:38.706Z,24.90
2022-10-12T11:50:30.709Z,25.00
2022-10-12T11:52:58.088Z,25.00
2022-10-12T11:56:07.730Z,24.90
2022-10-12T11:59:00.587Z,24.90
2022-10-12T12:02:03.504Z,24.70
2022-10-12T12:04:47.499Z,24.60
2022-10-12T12:07:49.724Z,24.70
2022-10-12T12:10:25.673Z,24.50
2022-10-12T12:13:16.750Z,24.40
2022-10-12T12:16:04.727Z,24.30
2022-10-12T12:18:38.753Z,24.10
2022-10-12T12:21:07.115Z,24.00
2022-10-12T12:23:59.819Z,24.20
2022-10-12T12:26:28.304Z,24.40
2022-10-12T12:29:21.727Z,24.30
2022-10-12T12:31:58.933Z,24.50
2022-10-12T12:34:32.743Z,24.30
2022-10-12T12:36:59.794Z,24.50
2022-10-12T12:39:38.792Z,24.70
2022-10-12T12:42:08.814Z,24.70
2022-10-12T12:44:47.754Z,24.70
2022-10-12T12:50:42.772Z,24.80
2022-10-12T12:53:24.746Z,24.80
2022-10-12T12:56:20.714Z,24.70
2022-10-12T12:59:08.608Z,24.70
2022-10-12T13:02:18.753Z,24.70
2022-10-12T13:05:22.497Z,24.80
2022-10-12T13:08:59.756Z,24.90
2022-10-12T13:11:59.461Z,25.00
2022-10-12T13:15:03.800Z,24.90
2022-10-12T13:18:28.391Z,25.00
2022-10-12T13:21:00.711Z,25.00
2022-10-12T13:23:33.805Z,25.00
2022-10-12T13:26:06.924Z,25.00
2022-10-12T13:28:44.846Z,24.80
2022-10-12T13:31:26.062Z,24.70
2022-10-12T13:34:07.778Z,24.90
2022-10-12T13:36:36.646Z,25.00
2022-10-12T13:39:22.783Z,24.90
2022-10-12T13:41:52.235Z,24.90
2022-10-12T13:44:40.806Z,25.00
2022-10-12T13:47:31.059Z,24.90
2022-10-12T13:50:04.889Z,24.80
2022-10-12T13:52:33.683Z,24.60
2022-10-12T13:55:07.781Z,24.60
2022-10-12T13:57:41.894Z,24.50
2022-10-12T14:00:29.804Z,24.40
2022-10-12T14:03:01.811Z,24.50
2022-10-12T14:05:37.797Z,24.30
2022-10-12T14:08:15.746Z,24.20
2022-10-12T14:10:49.817Z,24.00
2022-10-12T14:13:32.934Z,24.10
2022-10-12T14:16:07.819Z,24.20
2022-10-12T14:18:52.886Z,24.40
2022-10-12T14:21:36.838Z,24.50
2022-10-12T14:24:10.281Z,24.50
2022-10-12T14:26:51.127Z,24.50
2022-10-12T14:29:44.395Z,24.50
2022-10-12T14:32:17.812Z,24.40
2022-10-12T14:34:48.804Z,24.30
2022-10-12T14:37:15.614Z,24.40
2022-10-12T14:39:50.814Z,24.30
2022-10-12T14:42:20.874Z,24.20
2022-10-12T14:44:54.830Z,24.10
2022-10-12T14:47:29.827Z,24.10
2022-10-12T14:50:04.842Z,23.80
2022-10-12T14:52:48.126Z,23.70
2022-10-12T14:55:32.850Z,23.70
2022-10-12T14:57:59.849Z,23.80
2022-10-12T15:00:40.857Z,23.80
2022-10-12T15:03:07.780Z,23.70
2022-10-12T15:05:40.850Z,23.70
2022-10-12T15:08:07.755Z,23.70
2022-10-12T15:10:40.876Z,23.70
2022-10-12T15:13:07.990Z,23.70
2022-10-12T15:15:52.855Z,23.70
2022-10-12T15:18:25.849Z,23.70
2022-10-12T15:20:53.616Z,23.80
2022-10-12T15:23:27.195Z,23.70
2022-10-12T15:25:55.616Z,23.50
2022-10-12T15:28:29.997Z,23.40
2022-10-12T15:31:17.903Z,23.40
2022-10-12T15:33:51.898Z,23.30
2022-10-12T15:36:24.879Z,23.20
2022-10-12T15:38:51.975Z,23.20
2022-10-12T15:41:25.877Z,23.20
2022-10-12T15:43:52.771Z,23.10
2022-10-12T15:46:19.651Z,23.00
2022-10-12T15:48:52.865Z,23.00
2022-10-12T15:51:22.365Z,22.90
2022-10-12T15:53:58.904Z,22.80
2022-10-12T15:56:25.796Z,22.90
2022-10-12T15:58:52.663Z,22.90
2022-10-12T16:01:25.948Z,22.80
2022-10-12T16:03:52.892Z,22.70
2022-10-12T16:06:25.912Z,22.70
2022-10-12T16:08:52.822Z,22.60
2022-10-12T16:11:25.883Z,22.50
2022-10-12T16:13:56.685Z,22.40
2022-10-12T16:16:24.000Z,22.20
2022-10-12T16:18:57.878Z,22.10
2022-10-12T16:21:24.743Z,22.00
2022-10-12T16:23:57.914Z,21.80
2022-10-12T16:26:30.888Z,21.70
2022-10-12T16:29:03.955Z,21.50
2022-10-12T16:31:30.972Z,21.40
2022-10-12T16:34:04.969Z,21.20
2022-10-12T16:36:31.974Z,21.00
2022-10-12T16:39:04.975Z,20.80
2022-10-12T16:41:34.044Z,20.60
2022-10-12T16:44:01.130Z,20.50
2022-10-12T16:46:34.932Z,20.30
2022-10-12T16:49:01.762Z,20.20
2022-10-12T16:51:34.948Z,20.00
2022-10-12T16:54:01.911Z,19.80
2022-10-12T16:56:38.575Z,19.70
2022-10-12T16:59:06.329Z,19.60
2022-10-12T17:01:39.918Z,19.60
2022-10-12T17:04:06.810Z,19.60
2022-10-12T17:06:33.685Z,19.50
2022-10-12T17:09:07.937Z,19.40
2022-10-12T17:11:35.946Z,19.20
2022-10-12T17:14:10.995Z,19.10
2022-10-12T17:16:43.918Z,18.90
2022-10-12T17:19:10.782Z,18.80
2022-10-12T17:21:37.705Z,18.70
2022-10-12T17:24:11.989Z,18.70
2022-10-12T17:26:41.051Z,18.80
2022-10-12T17:29:16.938Z,18.80
2022-10-12T17:31:43.902Z,18.80
2022-10-12T17:34:31.953Z,18.80
2022-10-12T17:37:00.089Z,18.70
2022-10-12T17:39:28.417Z,18.50
2022-10-12T17:42:01.952Z,18.30
2022-10-12T17:44:28.865Z,18.10
2022-10-12T17:47:01.974Z,17.90
2022-10-12T17:49:29.054Z,17.80
2022-10-12T17:52:01.951Z,17.80
2022-10-12T17:54:28.880Z,17.70
2022-10-12T17:57:01.981Z,17.60
2022-10-12T17:59:28.892Z,17.50
2022-10-12T18:02:02.257Z,17.50
2022-10-12T18:04:29.135Z,17.40
2022-10-12T18:07:02.990Z,17.20
2022-10-12T18:09:30.672Z,17.20
2022-10-12T18:12:03.996Z,17.10
2022-10-12T18:14:37.673Z,16.90
2022-10-12T18:17:10.985Z,16.80
2022-10-12T18:19:38.146Z,16.70
2022-10-12T18:22:11.937Z,16.70
2022-10-12T18:24:40.172Z,16.70
2022-10-12T18:27:13.994Z,16.70
2022-10-12T18:29:40.937Z,16.60
2022-10-12T18:32:13.987Z,16.70
2022-10-12T18:34:40.982Z,16.60
2022-10-12T18:37:13.998Z,16.60
2022-10-12T18:39:40.960Z,16.60
2022-10-12T18:42:14.107Z,16.60
2022-10-12T18:44:41.138Z,16.50
2022-10-12T18:47:08.120Z,16.30
2022-10-12T18:49:42.112Z,16.20
2022-10-12T18:52:09.067Z,16.20
2022-10-12T18:54:42.028Z,16.20
2022-10-12T18:57:08.888Z,16.20
2022-10-12T18:59:42.028Z,16.20
2022-10-12T19:02:10.690Z,16.10
2022-10-12T19:04:37.757Z,16.10
2022-10-12T19:07:11.017Z,16.20
2022-10-12T19:09:37.965Z,16.20
2022-10-12T19:12:04.885Z,16.10
2022-10-12T19:14:38.040Z,16.10
2022-10-12T19:17:11.040Z,16.10
2022-10-12T19:19:37.950Z,16.10
2022-10-12T19:22:11.038Z,16.10
2022-10-12T19:24:37.969Z,16.00
2022-10-12T19:27:11.039Z,16.00
2022-10-12T19:29:45.868Z,15.90
2022-10-12T19:32:13.066Z,15.90
2022-10-12T19:34:46.028Z,15.80
2022-10-12T19:37:12.988Z,15.80
2022-10-12T19:39:39.900Z,15.70
2022-10-12T19:42:13.040Z,15.70
2022-10-12T19:44:39.895Z,15.80
2022-10-12T19:47:13.042Z,15.80
2022-10-12T19:49:44.477Z,15.80
2022-10-12T19:52:19.427Z,15.70
2022-10-12T19:54:46.668Z,15.70
2022-10-12T19:57:20.076Z,15.60
2022-10-12T19:59:46.969Z,15.50
2022-10-12T20:02:20.405Z,15.40
2022-10-12T20:04:47.554Z,15.40
2022-10-12T20:07:21.050Z,15.40
2022-10-12T20:09:47.894Z,15.40
2022-10-12T20:12:14.948Z,15.40
2022-10-12T20:14:48.077Z,15.40
2022-10-12T20:17:14.970Z,15.40
2022-10-12T20:19:48.031Z,15.30
2022-10-12T20:22:15.201Z,15.20
2022-10-12T20:24:49.026Z,15.20
2022-10-12T20:27:15.888Z,15.20
2022-10-12T20:29:42.746Z,15.20
2022-10-12T20:32:16.257Z,15.30
2022-10-12T20:34:43.445Z,15.30
2022-10-12T20:37:17.055Z,15.40
2022-10-12T20:39:44.015Z,15.40
2022-10-12T20:42:21.435Z,15.40
2022-10-12T20:44:55.075Z,15.40
2022-10-12T20:47:28.095Z,15.40
2022-10-12T20:49:54.945Z,15.40
2022-10-12T20:52:22.025Z,15.30
2022-10-12T20:54:58.465Z,15.30
2022-10-12T20:57:25.499Z,15.30
2022-10-12T21:00:04.318Z,15.30
2022-10-12T21:02:31.407Z,15.30
2022-10-12T21:05:05.144Z,15.30
2022-10-12T21:07:38.448Z,15.30
2022-10-12T21:10:06.392Z,15.30
2022-10-12T21:12:40.802Z,15.30
2022-10-12T21:15:09.148Z,15.30
2022-10-12T21:17:36.370Z,15.30
2022-10-12T21:20:10.320Z,15.30
2022-10-12T21:22:37.325Z,15.40
2022-10-12T21:25:11.285Z,15.40
2022-10-12T21:27:45.090Z,15.50
2022-10-12T21:30:19.185Z,15.40
2022-10-12T21:32:46.309Z,15.50
2022-10-12T21:35:20.124Z,15.50
2022-10-12T21:37:47.061Z,15.40
2022-10-12T21:40:21.172Z,15.40
2022-10-12T21:42:48.137Z,15.40
2022-10-12T21:45:22.316Z,15.30
2022-10-12T21:47:49.442Z,15.40
2022-10-12T21:50:23.175Z,15.40
2022-10-12T21:52:50.311Z,15.40
2022-10-12T21:55:24.129Z,15.50
2022-10-12T21:57:51.070Z,15.50
2022-10-12T22:00:18.897Z,15.60
2022-10-12T22:02:52.188Z,15.70
2022-10-12T22:05:19.244Z,15.70
2022-10-12T22:07:53.147Z,15.80
2022-10-12T22:10:20.180Z,15.80
2022-10-12T22:12:54.164Z,15.90
2022-10-12T22:15:27.241Z,16.00
2022-10-12T22:17:54.187Z,16.10
2022-10-12T22:20:28.225Z,16.20
2022-10-12T22:22:55.252Z,16.30
2022-10-12T22:25:29.250Z,16.30
2022-10-12T22:28:02.254Z,16.40
2022-10-12T22:30:29.247Z,16.40
2022-10-12T22:33:03.232Z,16.30
2022-10-12T22:35:37.262Z,16.30
2022-10-12T22:38:11.252Z,16.40
2022-10-12T22:40:38.289Z,16.40
2022-10-12T22:43:12.270Z,16.40
2022-10-12T22:45:39.495Z,16.30
2022-10-12T22:48:13.229Z,16.20
2022-10-12T22:50:40.249Z,16.10
2022-10-12T22:53:13.249Z,16.10
2022-10-12T22:55:47.245Z,16.10
2022-10-12T22:58:21.257Z,16.20
2022-10-12T23:09:14.627Z,16.10
2022-10-12T23:11:48.229Z,16.00
2022-10-12T23:14:15.063Z,15.90
2022-10-12T23:16:41.967Z,15.80
2022-10-12T23:19:16.318Z,15.80
2022-10-12T23:21:43.260Z,15.80
2022-10-12T23:24:17.161Z,15.80
2022-10-12T23:26:44.077Z,15.80
2022-10-12T23:29:17.182Z,15.90
2022-10-12T23:31:44.022Z,16.00
2022-10-12T23:34:17.209Z,16.10
2022-10-12T23:36:44.057Z,16.20
2022-10-12T23:39:17.189Z,16.20
2022-10-12T23:41:44.202Z,16.30
2022-10-12T23:44:11.284Z,16.30
2022-10-12T23:46:44.206Z,16.10
2022-10-12T23:49:11.059Z,16.00
2022-10-12T23:51:37.982Z,15.90
2022-10-12T23:54:11.186Z,15.90
2022-10-12T23:56:38.002Z,15.80
2022-10-12T23:59:11.199Z,15.90
